<?xml version="1.0" encoding="UTF-8" standalone="no" ?>
<gpx xmlns="http://www.topografix.com/GPX/1/1" xmlns:xsi="http://www.w3.org/2001/XMLSchema-instance" xsi:schemaLocation="http://www.topografix.com/GPX/1/1 http://www.topografix.com/GPX/1/1/gpx.xsd" version="1.1" creator="VisuGPX - https://www.visugpx.com">
  <metadata>
    <name>VTT Sud Bourgogne</name>
    <desc><![CDATA[Cluny - Tournus : circuits VTT XC]]></desc>
  </metadata>
  <trk>
    <name><![CDATA[2_ la colline du cra - Vert]]></name>
    <extensions>
      <line xmlns="http://www.topografix.com/GPX/gpx_style/0/2">
        <color>00FF00</color>
        <width>4</width>
      </line>
    </extensions>
    <trkseg>
      <trkpt lat="46.53318" lon="4.87724">
        <ele>307</ele>
        <time>2020-09-22T10:17:41Z</time>
      </trkpt>
      <trkpt lat="46.533" lon="4.87726">
        <ele>306</ele>
        <time>2020-09-22T10:17:45Z</time>
      </trkpt>
      <trkpt lat="46.53289" lon="4.87725">
        <ele>306</ele>
        <time>2020-09-22T10:17:48Z</time>
      </trkpt>
      <trkpt lat="46.53283" lon="4.87718">
        <ele>306</ele>
        <time>2020-09-22T10:17:50Z</time>
      </trkpt>
      <trkpt lat="46.53272" lon="4.87711">
        <ele>306</ele>
        <time>2020-09-22T10:17:52Z</time>
      </trkpt>
      <trkpt lat="46.53275" lon="4.87703">
        <ele>306</ele>
        <time>2020-09-22T10:17:54Z</time>
      </trkpt>
      <trkpt lat="46.53276" lon="4.87556">
        <ele>299</ele>
        <time>2020-09-22T10:18:17Z</time>
      </trkpt>
      <trkpt lat="46.53277" lon="4.87502">
        <ele>294</ele>
        <time>2020-09-22T10:18:26Z</time>
      </trkpt>
      <trkpt lat="46.53281" lon="4.87473">
        <ele>292</ele>
        <time>2020-09-22T10:18:31Z</time>
      </trkpt>
      <trkpt lat="46.53281" lon="4.8746">
        <ele>291</ele>
        <time>2020-09-22T10:18:33Z</time>
      </trkpt>
      <trkpt lat="46.5329" lon="4.8746">
        <ele>291</ele>
        <time>2020-09-22T10:18:35Z</time>
      </trkpt>
      <trkpt lat="46.53318" lon="4.87457">
        <ele>292</ele>
        <time>2020-09-22T10:18:42Z</time>
      </trkpt>
      <trkpt lat="46.53343" lon="4.87449">
        <ele>293</ele>
        <time>2020-09-22T10:18:48Z</time>
      </trkpt>
      <trkpt lat="46.53374" lon="4.87442">
        <ele>294</ele>
        <time>2020-09-22T10:18:55Z</time>
      </trkpt>
      <trkpt lat="46.53427" lon="4.87431">
        <ele>296</ele>
        <time>2020-09-22T10:19:07Z</time>
      </trkpt>
      <trkpt lat="46.53493" lon="4.87421">
        <ele>298</ele>
        <time>2020-09-22T10:19:23Z</time>
      </trkpt>
      <trkpt lat="46.53506" lon="4.87418">
        <ele>299</ele>
        <time>2020-09-22T10:19:26Z</time>
      </trkpt>
      <trkpt lat="46.53528" lon="4.87405">
        <ele>299</ele>
        <time>2020-09-22T10:19:32Z</time>
      </trkpt>
      <trkpt lat="46.53572" lon="4.87389">
        <ele>300</ele>
        <time>2020-09-22T10:19:42Z</time>
      </trkpt>
      <trkpt lat="46.53594" lon="4.87382">
        <ele>300</ele>
        <time>2020-09-22T10:19:47Z</time>
      </trkpt>
      <trkpt lat="46.53615" lon="4.8738">
        <ele>301</ele>
        <time>2020-09-22T10:19:52Z</time>
      </trkpt>
      <trkpt lat="46.53634" lon="4.87378">
        <ele>301</ele>
        <time>2020-09-22T10:19:57Z</time>
      </trkpt>
      <trkpt lat="46.53653" lon="4.87378">
        <ele>302</ele>
        <time>2020-09-22T10:20:01Z</time>
      </trkpt>
      <trkpt lat="46.53687" lon="4.87373">
        <ele>303</ele>
        <time>2020-09-22T10:20:09Z</time>
      </trkpt>
      <trkpt lat="46.53734" lon="4.87363">
        <ele>305</ele>
        <time>2020-09-22T10:20:20Z</time>
      </trkpt>
      <trkpt lat="46.53775" lon="4.87354">
        <ele>306</ele>
        <time>2020-09-22T10:20:30Z</time>
      </trkpt>
      <trkpt lat="46.538" lon="4.87351">
        <ele>308</ele>
        <time>2020-09-22T10:20:36Z</time>
      </trkpt>
      <trkpt lat="46.53815" lon="4.87353">
        <ele>310</ele>
        <time>2020-09-22T10:20:39Z</time>
      </trkpt>
      <trkpt lat="46.53855" lon="4.87364">
        <ele>313</ele>
        <time>2020-09-22T10:20:49Z</time>
      </trkpt>
      <trkpt lat="46.5387" lon="4.87366">
        <ele>314</ele>
        <time>2020-09-22T10:20:52Z</time>
      </trkpt>
      <trkpt lat="46.53882" lon="4.87364">
        <ele>314</ele>
        <time>2020-09-22T10:20:55Z</time>
      </trkpt>
      <trkpt lat="46.5391" lon="4.87349">
        <ele>313</ele>
        <time>2020-09-22T10:21:02Z</time>
      </trkpt>
      <trkpt lat="46.53927" lon="4.87346">
        <ele>313</ele>
        <time>2020-09-22T10:21:06Z</time>
      </trkpt>
      <trkpt lat="46.53953" lon="4.87348">
        <ele>314</ele>
        <time>2020-09-22T10:21:12Z</time>
      </trkpt>
      <trkpt lat="46.53981" lon="4.87352">
        <ele>315</ele>
        <time>2020-09-22T10:21:19Z</time>
      </trkpt>
      <trkpt lat="46.54008" lon="4.87355">
        <ele>315</ele>
        <time>2020-09-22T10:21:25Z</time>
      </trkpt>
      <trkpt lat="46.54042" lon="4.87364">
        <ele>315</ele>
        <time>2020-09-22T10:21:33Z</time>
      </trkpt>
      <trkpt lat="46.54069" lon="4.87368">
        <ele>315</ele>
        <time>2020-09-22T10:21:40Z</time>
      </trkpt>
      <trkpt lat="46.54099" lon="4.87379">
        <ele>315</ele>
        <time>2020-09-22T10:21:47Z</time>
      </trkpt>
      <trkpt lat="46.54144" lon="4.87404">
        <ele>315</ele>
        <time>2020-09-22T10:21:58Z</time>
      </trkpt>
      <trkpt lat="46.54149" lon="4.87403">
        <ele>315</ele>
        <time>2020-09-22T10:21:59Z</time>
      </trkpt>
      <trkpt lat="46.54152" lon="4.87399">
        <ele>314</ele>
        <time>2020-09-22T10:22:00Z</time>
      </trkpt>
      <trkpt lat="46.54159" lon="4.87365">
        <ele>312</ele>
        <time>2020-09-22T10:22:06Z</time>
      </trkpt>
      <trkpt lat="46.54168" lon="4.87343">
        <ele>310</ele>
        <time>2020-09-22T10:22:10Z</time>
      </trkpt>
      <trkpt lat="46.54177" lon="4.87323">
        <ele>309</ele>
        <time>2020-09-22T10:22:14Z</time>
      </trkpt>
      <trkpt lat="46.54189" lon="4.87278">
        <ele>309</ele>
        <time>2020-09-22T10:22:22Z</time>
      </trkpt>
      <trkpt lat="46.54194" lon="4.87254">
        <ele>309</ele>
        <time>2020-09-22T10:22:26Z</time>
      </trkpt>
      <trkpt lat="46.542" lon="4.87255">
        <ele>309</ele>
        <time>2020-09-22T10:22:27Z</time>
      </trkpt>
      <trkpt lat="46.54235" lon="4.8727">
        <ele>311</ele>
        <time>2020-09-22T10:22:36Z</time>
      </trkpt>
      <trkpt lat="46.54253" lon="4.87274">
        <ele>311</ele>
        <time>2020-09-22T10:22:40Z</time>
      </trkpt>
      <trkpt lat="46.54294" lon="4.8727">
        <ele>313</ele>
        <time>2020-09-22T10:22:49Z</time>
      </trkpt>
      <trkpt lat="46.54309" lon="4.8727">
        <ele>314</ele>
        <time>2020-09-22T10:22:53Z</time>
      </trkpt>
      <trkpt lat="46.54317" lon="4.87291">
        <ele>312</ele>
        <time>2020-09-22T10:22:57Z</time>
      </trkpt>
      <trkpt lat="46.5432" lon="4.87308">
        <ele>311</ele>
        <time>2020-09-22T10:23:00Z</time>
      </trkpt>
      <trkpt lat="46.54319" lon="4.87325">
        <ele>309</ele>
        <time>2020-09-22T10:23:02Z</time>
      </trkpt>
      <trkpt lat="46.54316" lon="4.87337">
        <ele>308</ele>
        <time>2020-09-22T10:23:04Z</time>
      </trkpt>
      <trkpt lat="46.54311" lon="4.87352">
        <ele>307</ele>
        <time>2020-09-22T10:23:07Z</time>
      </trkpt>
      <trkpt lat="46.54299" lon="4.87383">
        <ele>306</ele>
        <time>2020-09-22T10:23:13Z</time>
      </trkpt>
      <trkpt lat="46.54294" lon="4.87408">
        <ele>305</ele>
        <time>2020-09-22T10:23:17Z</time>
      </trkpt>
      <trkpt lat="46.54292" lon="4.87425">
        <ele>305</ele>
        <time>2020-09-22T10:23:20Z</time>
      </trkpt>
      <trkpt lat="46.54292" lon="4.87441">
        <ele>305</ele>
        <time>2020-09-22T10:23:22Z</time>
      </trkpt>
      <trkpt lat="46.54295" lon="4.87452">
        <ele>306</ele>
        <time>2020-09-22T10:23:24Z</time>
      </trkpt>
      <trkpt lat="46.5432" lon="4.87516">
        <ele>305</ele>
        <time>2020-09-22T10:23:36Z</time>
      </trkpt>
      <trkpt lat="46.54331" lon="4.87539">
        <ele>306</ele>
        <time>2020-09-22T10:23:40Z</time>
      </trkpt>
      <trkpt lat="46.54337" lon="4.87559">
        <ele>306</ele>
        <time>2020-09-22T10:23:44Z</time>
      </trkpt>
      <trkpt lat="46.54347" lon="4.8758">
        <ele>307</ele>
        <time>2020-09-22T10:23:48Z</time>
      </trkpt>
      <trkpt lat="46.54366" lon="4.87613">
        <ele>306</ele>
        <time>2020-09-22T10:23:55Z</time>
      </trkpt>
      <trkpt lat="46.54391" lon="4.87648">
        <ele>305</ele>
        <time>2020-09-22T10:24:03Z</time>
      </trkpt>
      <trkpt lat="46.5441" lon="4.87674">
        <ele>305</ele>
        <time>2020-09-22T10:24:09Z</time>
      </trkpt>
      <trkpt lat="46.54438" lon="4.87706">
        <ele>306</ele>
        <time>2020-09-22T10:24:18Z</time>
      </trkpt>
      <trkpt lat="46.54477" lon="4.87744">
        <ele>308</ele>
        <time>2020-09-22T10:24:28Z</time>
      </trkpt>
      <trkpt lat="46.54518" lon="4.87779">
        <ele>308</ele>
        <time>2020-09-22T10:24:40Z</time>
      </trkpt>
      <trkpt lat="46.54551" lon="4.87807">
        <ele>309</ele>
        <time>2020-09-22T10:24:48Z</time>
      </trkpt>
      <trkpt lat="46.54598" lon="4.87846">
        <ele>310</ele>
        <time>2020-09-22T10:25:01Z</time>
      </trkpt>
      <trkpt lat="46.54631" lon="4.87876">
        <ele>312</ele>
        <time>2020-09-22T10:25:10Z</time>
      </trkpt>
      <trkpt lat="46.54648" lon="4.87895">
        <ele>314</ele>
        <time>2020-09-22T10:25:15Z</time>
      </trkpt>
      <trkpt lat="46.54669" lon="4.87912">
        <ele>314</ele>
        <time>2020-09-22T10:25:21Z</time>
      </trkpt>
      <trkpt lat="46.54692" lon="4.87927">
        <ele>314</ele>
        <time>2020-09-22T10:25:27Z</time>
      </trkpt>
      <trkpt lat="46.54718" lon="4.87942">
        <ele>314</ele>
        <time>2020-09-22T10:25:33Z</time>
      </trkpt>
      <trkpt lat="46.54728" lon="4.87948">
        <ele>314</ele>
        <time>2020-09-22T10:25:36Z</time>
      </trkpt>
      <trkpt lat="46.54751" lon="4.87958">
        <ele>314</ele>
        <time>2020-09-22T10:25:41Z</time>
      </trkpt>
      <trkpt lat="46.54782" lon="4.87971">
        <ele>313</ele>
        <time>2020-09-22T10:25:49Z</time>
      </trkpt>
      <trkpt lat="46.54795" lon="4.87977">
        <ele>313</ele>
        <time>2020-09-22T10:25:52Z</time>
      </trkpt>
      <trkpt lat="46.54788" lon="4.87983">
        <ele>315</ele>
        <time>2020-09-22T10:25:54Z</time>
      </trkpt>
      <trkpt lat="46.5478" lon="4.87985">
        <ele>316</ele>
        <time>2020-09-22T10:25:56Z</time>
      </trkpt>
      <trkpt lat="46.54768" lon="4.87991">
        <ele>317</ele>
        <time>2020-09-22T10:25:59Z</time>
      </trkpt>
      <trkpt lat="46.54752" lon="4.87999">
        <ele>320</ele>
        <time>2020-09-22T10:26:03Z</time>
      </trkpt>
      <trkpt lat="46.54745" lon="4.88">
        <ele>320</ele>
        <time>2020-09-22T10:26:04Z</time>
      </trkpt>
      <trkpt lat="46.54731" lon="4.88001">
        <ele>321</ele>
        <time>2020-09-22T10:26:08Z</time>
      </trkpt>
      <trkpt lat="46.54715" lon="4.87993">
        <ele>321</ele>
        <time>2020-09-22T10:26:12Z</time>
      </trkpt>
      <trkpt lat="46.54693" lon="4.87986">
        <ele>322</ele>
        <time>2020-09-22T10:26:17Z</time>
      </trkpt>
      <trkpt lat="46.54668" lon="4.87975">
        <ele>322</ele>
        <time>2020-09-22T10:26:23Z</time>
      </trkpt>
      <trkpt lat="46.54638" lon="4.87958">
        <ele>322</ele>
        <time>2020-09-22T10:26:31Z</time>
      </trkpt>
      <trkpt lat="46.54616" lon="4.87951">
        <ele>323</ele>
        <time>2020-09-22T10:26:36Z</time>
      </trkpt>
      <trkpt lat="46.54597" lon="4.87942">
        <ele>323</ele>
        <time>2020-09-22T10:26:40Z</time>
      </trkpt>
      <trkpt lat="46.54567" lon="4.87929">
        <ele>324</ele>
        <time>2020-09-22T10:26:48Z</time>
      </trkpt>
      <trkpt lat="46.54534" lon="4.87912">
        <ele>325</ele>
        <time>2020-09-22T10:26:56Z</time>
      </trkpt>
      <trkpt lat="46.54518" lon="4.87904">
        <ele>325</ele>
        <time>2020-09-22T10:27:00Z</time>
      </trkpt>
      <trkpt lat="46.54496" lon="4.87897">
        <ele>326</ele>
        <time>2020-09-22T10:27:05Z</time>
      </trkpt>
      <trkpt lat="46.54469" lon="4.87886">
        <ele>326</ele>
        <time>2020-09-22T10:27:12Z</time>
      </trkpt>
      <trkpt lat="46.54441" lon="4.87871">
        <ele>326</ele>
        <time>2020-09-22T10:27:19Z</time>
      </trkpt>
      <trkpt lat="46.54405" lon="4.87843">
        <ele>327</ele>
        <time>2020-09-22T10:27:28Z</time>
      </trkpt>
      <trkpt lat="46.54362" lon="4.87816">
        <ele>328</ele>
        <time>2020-09-22T10:27:39Z</time>
      </trkpt>
      <trkpt lat="46.54339" lon="4.87795">
        <ele>329</ele>
        <time>2020-09-22T10:27:46Z</time>
      </trkpt>
      <trkpt lat="46.54314" lon="4.87779">
        <ele>329</ele>
        <time>2020-09-22T10:27:52Z</time>
      </trkpt>
      <trkpt lat="46.54257" lon="4.87739">
        <ele>332</ele>
        <time>2020-09-22T10:28:07Z</time>
      </trkpt>
      <trkpt lat="46.54239" lon="4.87729">
        <ele>332</ele>
        <time>2020-09-22T10:28:11Z</time>
      </trkpt>
      <trkpt lat="46.54215" lon="4.87711">
        <ele>333</ele>
        <time>2020-09-22T10:28:17Z</time>
      </trkpt>
      <trkpt lat="46.54183" lon="4.87692">
        <ele>335</ele>
        <time>2020-09-22T10:28:26Z</time>
      </trkpt>
      <trkpt lat="46.54152" lon="4.87667">
        <ele>337</ele>
        <time>2020-09-22T10:28:34Z</time>
      </trkpt>
      <trkpt lat="46.54132" lon="4.8765">
        <ele>338</ele>
        <time>2020-09-22T10:28:39Z</time>
      </trkpt>
      <trkpt lat="46.54077" lon="4.87608">
        <ele>339</ele>
        <time>2020-09-22T10:28:54Z</time>
      </trkpt>
      <trkpt lat="46.54054" lon="4.87588">
        <ele>339</ele>
        <time>2020-09-22T10:29:00Z</time>
      </trkpt>
      <trkpt lat="46.54043" lon="4.87582">
        <ele>340</ele>
        <time>2020-09-22T10:29:03Z</time>
      </trkpt>
      <trkpt lat="46.5402" lon="4.87565">
        <ele>340</ele>
        <time>2020-09-22T10:29:09Z</time>
      </trkpt>
      <trkpt lat="46.53991" lon="4.87551">
        <ele>340</ele>
        <time>2020-09-22T10:29:16Z</time>
      </trkpt>
      <trkpt lat="46.53961" lon="4.87542">
        <ele>339</ele>
        <time>2020-09-22T10:29:23Z</time>
      </trkpt>
      <trkpt lat="46.53901" lon="4.87541">
        <ele>338</ele>
        <time>2020-09-22T10:29:37Z</time>
      </trkpt>
      <trkpt lat="46.53891" lon="4.87541">
        <ele>338</ele>
        <time>2020-09-22T10:29:39Z</time>
      </trkpt>
      <trkpt lat="46.53866" lon="4.87538">
        <ele>336</ele>
        <time>2020-09-22T10:29:45Z</time>
      </trkpt>
      <trkpt lat="46.53834" lon="4.87532">
        <ele>335</ele>
        <time>2020-09-22T10:29:53Z</time>
      </trkpt>
      <trkpt lat="46.53817" lon="4.87529">
        <ele>334</ele>
        <time>2020-09-22T10:29:57Z</time>
      </trkpt>
      <trkpt lat="46.53778" lon="4.87528">
        <ele>332</ele>
        <time>2020-09-22T10:30:06Z</time>
      </trkpt>
      <trkpt lat="46.53755" lon="4.87529">
        <ele>332</ele>
        <time>2020-09-22T10:30:11Z</time>
      </trkpt>
      <trkpt lat="46.5373" lon="4.87532">
        <ele>331</ele>
        <time>2020-09-22T10:30:17Z</time>
      </trkpt>
      <trkpt lat="46.53692" lon="4.87535">
        <ele>328</ele>
        <time>2020-09-22T10:30:26Z</time>
      </trkpt>
      <trkpt lat="46.53662" lon="4.87537">
        <ele>327</ele>
        <time>2020-09-22T10:30:33Z</time>
      </trkpt>
      <trkpt lat="46.53626" lon="4.87549">
        <ele>327</ele>
        <time>2020-09-22T10:30:42Z</time>
      </trkpt>
      <trkpt lat="46.53596" lon="4.87556">
        <ele>326</ele>
        <time>2020-09-22T10:30:49Z</time>
      </trkpt>
      <trkpt lat="46.53565" lon="4.87565">
        <ele>326</ele>
        <time>2020-09-22T10:30:56Z</time>
      </trkpt>
      <trkpt lat="46.53552" lon="4.8757">
        <ele>325</ele>
        <time>2020-09-22T10:30:59Z</time>
      </trkpt>
      <trkpt lat="46.53532" lon="4.87572">
        <ele>324</ele>
        <time>2020-09-22T10:31:04Z</time>
      </trkpt>
      <trkpt lat="46.5351" lon="4.87574">
        <ele>322</ele>
        <time>2020-09-22T10:31:09Z</time>
      </trkpt>
      <trkpt lat="46.53468" lon="4.87585">
        <ele>319</ele>
        <time>2020-09-22T10:31:19Z</time>
      </trkpt>
      <trkpt lat="46.53439" lon="4.87596">
        <ele>316</ele>
        <time>2020-09-22T10:31:26Z</time>
      </trkpt>
      <trkpt lat="46.53417" lon="4.8761">
        <ele>315</ele>
        <time>2020-09-22T10:31:32Z</time>
      </trkpt>
      <trkpt lat="46.53392" lon="4.87628">
        <ele>313</ele>
        <time>2020-09-22T10:31:38Z</time>
      </trkpt>
      <trkpt lat="46.53378" lon="4.87642">
        <ele>313</ele>
        <time>2020-09-22T10:31:42Z</time>
      </trkpt>
      <trkpt lat="46.53368" lon="4.87658">
        <ele>313</ele>
        <time>2020-09-22T10:31:46Z</time>
      </trkpt>
      <trkpt lat="46.53351" lon="4.87685">
        <ele>311</ele>
        <time>2020-09-22T10:31:52Z</time>
      </trkpt>
      <trkpt lat="46.53346" lon="4.87696">
        <ele>310</ele>
        <time>2020-09-22T10:31:54Z</time>
      </trkpt>
      <trkpt lat="46.53344" lon="4.87711">
        <ele>309</ele>
        <time>2020-09-22T10:31:56Z</time>
      </trkpt>
      <trkpt lat="46.53336" lon="4.87718">
        <ele>308</ele>
        <time>2020-09-22T10:31:58Z</time>
      </trkpt>
      <trkpt lat="46.53318" lon="4.87724">
        <ele>307</ele>
        <time>2020-09-22T10:32:03Z</time>
      </trkpt>
    </trkseg>
  </trk>
</gpx>